Time;durP1;ratioP1;P1;durP2;ratioP2;P2;SDS_P1;SDS_P2;PMS_P1;PMS_P2;Temp;Humidity;BMP_temperature;BMP_pressure;BME280_temperature;BME280_humidity;BME280_pressure;Samples;Min_cycle;Max_cycle;Signal;HPM_P1;HPM_P2
2022/04/15 00:01:22;;;;;;;14.88;9.90;;;;;;;;;;5072388;28;20037;-28
2022/04/15 00:03:49;;;;;;;12.63;9.82;;;;;;;;;;5037725;28;20033;-27
2022/04/15 00:06:16;;;;;;;15.13;10.00;;;;;;;;;;5072065;28;20052;-27
2022/04/15 00:08:42;;;;;;;13.82;10.48;;;;;;;;;;5054357;28;20079;-28
2022/04/15 00:11:09;;;;;;;14.50;10.23;;;;;;;;;;5072011;28;20040;-27
2022/04/15 00:13:35;;;;;;;16.92;9.95;;;;;;;;;;5072208;28;20494;-27
2022/04/15 00:16:02;;;;;;;15.95;9.10;;;;;;;;;;5072166;28;20083;-27
2022/04/15 00:18:28;;;;;;;13.50;9.07;;;;;;;;;;5075500;28;20043;-31
2022/04/15 00:20:55;;;;;;;14.00;9.52;;;;;;;;;;5075824;28;20040;-31
2022/04/15 00:23:24;;;;;;;11.77;9.38;;;;;;;;;;5076099;28;20055;-29
2022/04/15 00:25:51;;;;;;;11.25;9.63;;;;;;;;;;5075991;28;20078;-27
2022/04/15 00:28:17;;;;;;;12.07;8.90;;;;;;;;;;5076229;28;20090;-30
2022/04/15 00:30:44;;;;;;;12.80;9.35;;;;;;;;;;5058065;28;20044;-32
2022/04/15 00:33:10;;;;;;;16.67;9.35;;;;;;;;;;5075843;28;20405;-31
2022/04/15 00:35:36;;;;;;;17.55;10.82;;;;;;;;;;5075775;28;20040;-32
2022/04/15 00:38:02;;;;;;;11.45;9.45;;;;;;;;;;5057954;28;20089;-32
2022/04/15 00:40:28;;;;;;;12.93;9.38;;;;;;;;;;5075806;28;20036;-31
2022/04/15 00:42:55;;;;;;;12.75;8.82;;;;;;;;;;5074979;28;20039;-31
2022/04/15 00:45:21;;;;;;;12.73;9.48;;;;;;;;;;5075813;28;20074;-30
2022/04/15 00:47:53;;;;;;;10.48;8.98;;;;;;;;;;5075481;28;20667;-31
2022/04/15 00:50:19;;;;;;;14.35;9.90;;;;;;;;;;5075180;28;20044;-31
2022/04/15 00:52:46;;;;;;;10.93;9.18;;;;;;;;;;5065044;28;20037;-33
2022/04/15 00:55:13;;;;;;;15.00;9.15;;;;;;;;;;5058015;28;20124;-29
2022/04/15 00:57:41;;;;;;;12.77;9.13;;;;;;;;;;5063502;28;20033;-29
2022/04/15 01:00:07;;;;;;;14.23;8.82;;;;;;;;;;5075308;28;20044;-33
2022/04/15 01:02:34;;;;;;;11.82;9.48;;;;;;;;;;5052858;28;20044;-33
2022/04/15 01:05:02;;;;;;;17.15;11.02;;;;;;;;;;5063696;28;20040;-31
2022/04/15 01:07:30;;;;;;;16.70;11.35;;;;;;;;;;5055282;28;20037;-30
2022/04/15 01:09:56;;;;;;;14.05;9.68;;;;;;;;;;5055094;28;20037;-29
2022/04/15 01:12:23;;;;;;;15.05;9.55;;;;;;;;;;5055226;28;20041;-28
2022/04/15 01:14:49;;;;;;;14.60;10.05;;;;;;;;;;5055042;28;20041;-28
2022/04/15 01:17:15;;;;;;;13.75;10.10;;;;;;;;;;5055406;28;20036;-29
2022/04/15 01:19:42;;;;;;;15.27;10.02;;;;;;;;;;5055249;28;20071;-31
2022/04/15 01:22:09;;;;;;;12.10;9.10;;;;;;;;;;5055250;28;20506;-28
2022/04/15 01:24:38;;;;;;;17.42;10.60;;;;;;;;;;5054966;28;20429;-26
2022/04/15 01:27:08;;;;;;;16.00;11.32;;;;;;;;;;5054301;28;20041;-26
2022/04/15 01:29:38;;;;;;;12.98;10.35;;;;;;;;;;5054382;28;20115;-25
2022/04/15 01:32:05;;;;;;;14.45;10.00;;;;;;;;;;5055047;28;20429;-28
2022/04/15 01:34:31;;;;;;;18.23;11.43;;;;;;;;;;5054807;28;20041;-29
2022/04/15 01:36:58;;;;;;;14.73;10.65;;;;;;;;;;5054194;28;20045;-27
2022/04/15 01:39:25;;;;;;;17.13;11.27;;;;;;;;;;5054591;28;20041;-26
2022/04/15 01:41:51;;;;;;;15.48;10.77;;;;;;;;;;5054934;28;20045;-25
2022/04/15 01:44:18;;;;;;;15.52;10.82;;;;;;;;;;5036853;28;20071;-26
2022/04/15 01:46:44;;;;;;;14.20;10.00;;;;;;;;;;5054245;28;20049;-28
2022/04/15 01:49:10;;;;;;;16.90;10.57;;;;;;;;;;5054079;28;20041;-27
2022/04/15 01:51:36;;;;;;;15.85;10.77;;;;;;;;;;5053880;28;20048;-26
2022/04/15 01:54:03;;;;;;;14.02;10.40;;;;;;;;;;5054241;28;20498;-27
2022/04/15 01:56:29;;;;;;;16.13;9.30;;;;;;;;;;5054150;28;20475;-25
2022/04/15 01:58:56;;;;;;;16.08;10.40;;;;;;;;;;5053939;28;20041;-27
2022/04/15 02:01:22;;;;;;;17.75;11.27;;;;;;;;;;5053780;28;20060;-27
2022/04/15 02:03:48;;;;;;;14.57;10.40;;;;;;;;;;5036387;28;20455;-28
2022/04/15 02:06:15;;;;;;;14.90;10.23;;;;;;;;;;5054729;28;20064;-26
2022/04/15 02:08:41;;;;;;;12.25;9.75;;;;;;;;;;5054687;28;20049;-27
2022/04/15 02:11:07;;;;;;;13.43;9.80;;;;;;;;;;5054338;28;20525;-26
2022/04/15 02:13:33;;;;;;;15.50;10.00;;;;;;;;;;5054478;28;20117;-27
2022/04/15 02:15:59;;;;;;;14.70;9.63;;;;;;;;;;5054079;28;20037;-29
2022/04/15 02:18:26;;;;;;;15.93;9.80;;;;;;;;;;5054069;28;20155;-28
2022/04/15 02:20:55;;;;;;;10.35;9.30;;;;;;;;;;5053841;28;20045;-25
2022/04/15 02:23:21;;;;;;;11.93;8.93;;;;;;;;;;5053997;28;20087;-27
2022/04/15 02:25:48;;;;;;;13.35;8.50;;;;;;;;;;5053998;28;20067;-28
2022/04/15 02:28:14;;;;;;;13.13;8.75;;;;;;;;;;5054076;28;20390;-27
2022/04/15 02:30:40;;;;;;;10.50;8.27;;;;;;;;;;5053201;28;20041;-27
2022/04/15 02:33:06;;;;;;;15.63;9.65;;;;;;;;;;5053846;28;20063;-27
2022/04/15 02:35:32;;;;;;;12.50;9.38;;;;;;;;;;5053505;28;20045;-27
2022/04/15 02:37:59;;;;;;;12.82;9.10;;;;;;;;;;5053364;28;20029;-29
2022/04/15 02:40:25;;;;;;;11.95;9.02;;;;;;;;;;5052634;28;20041;-27
2022/04/15 02:42:51;;;;;;;13.50;9.75;;;;;;;;;;5053783;28;20055;-28
2022/04/15 02:45:17;;;;;;;13.05;9.70;;;;;;;;;;5018811;28;20048;-28
2022/04/15 02:47:43;;;;;;;12.23;9.10;;;;;;;;;;5053496;28;20047;-26
2022/04/15 02:50:10;;;;;;;15.50;9.38;;;;;;;;;;5053117;28;20091;-29
2022/04/15 02:52:37;;;;;;;12.68;9.18;;;;;;;;;;5053106;28;20041;-29
2022/04/15 02:55:04;;;;;;;14.57;9.60;;;;;;;;;;5053037;28;20037;-27
2022/04/15 02:57:30;;;;;;;12.07;9.35;;;;;;;;;;5053225;28;20118;-27
2022/04/15 02:59:56;;;;;;;14.98;9.20;;;;;;;;;;5053252;28;20045;-27
2022/04/15 03:02:22;;;;;;;13.85;10.15;;;;;;;;;;5053160;28;20526;-36
2022/04/15 03:04:49;;;;;;;13.35;9.32;;;;;;;;;;5035035;28;20453;-28
2022/04/15 03:07:15;;;;;;;17.10;10.55;;;;;;;;;;5053079;28;20116;-26
2022/04/15 03:09:41;;;;;;;14.13;10.38;;;;;;;;;;5052757;28;20041;-26
2022/04/15 03:12:07;;;;;;;13.93;9.50;;;;;;;;;;5052919;28;20036;-28
2022/04/15 03:14:33;;;;;;;15.65;9.93;;;;;;;;;;5052666;28;20075;-30
2022/04/15 03:16:59;;;;;;;12.88;9.70;;;;;;;;;;5034703;28;20068;-29
2022/04/15 03:19:25;;;;;;;11.13;9.43;;;;;;;;;;5053107;28;20402;-28
2022/04/15 03:21:52;;;;;;;15.05;9.43;;;;;;;;;;5052523;28;20048;-27
2022/04/15 03:24:18;;;;;;;13.43;9.38;;;;;;;;;;5034985;28;20483;-27
2022/04/15 03:26:44;;;;;;;13.00;10.00;;;;;;;;;;5052390;28;20040;-28
2022/04/15 03:29:11;;;;;;;14.02;9.55;;;;;;;;;;5034965;28;20036;-28
2022/04/15 03:31:37;;;;;;;12.50;9.27;;;;;;;;;;5052566;28;20078;-28
2022/04/15 03:34:03;;;;;;;11.98;9.65;;;;;;;;;;5052528;28;20045;-27
2022/04/15 03:36:29;;;;;;;13.23;9.63;;;;;;;;;;5052070;28;20041;-27
2022/04/15 03:38:55;;;;;;;14.65;9.40;;;;;;;;;;5052438;28;20037;-28
2022/04/15 03:41:22;;;;;;;14.65;9.38;;;;;;;;;;5052409;28;20036;-28
2022/04/15 03:43:49;;;;;;;14.05;10.15;;;;;;;;;;5052428;28;20064;-27
2022/04/15 03:46:15;;;;;;;14.80;9.70;;;;;;;;;;5052424;28;20132;-27
2022/04/15 03:48:42;;;;;;;16.73;9.32;;;;;;;;;;5052440;28;20077;-26
2022/04/15 03:51:08;;;;;;;13.18;9.40;;;;;;;;;;5052026;28;20048;-28
2022/04/15 03:53:35;;;;;;;16.63;9.52;;;;;;;;;;5052207;28;20045;-28
2022/04/15 03:56:01;;;;;;;13.48;9.27;;;;;;;;;;5052445;28;20041;-28
2022/04/15 03:58:27;;;;;;;16.05;9.60;;;;;;;;;;5051865;28;20091;-32
2022/04/15 04:00:53;;;;;;;15.35;10.15;;;;;;;;;;5052101;28;20040;-30
2022/04/15 04:03:20;;;;;;;14.02;9.43;;;;;;;;;;5051886;28;20032;-30
2022/04/15 04:05:46;;;;;;;17.05;9.93;;;;;;;;;;5051824;28;20048;-29
2022/04/15 04:08:12;;;;;;;14.65;9.57;;;;;;;;;;5051670;28;20445;-32
2022/04/15 04:10:38;;;;;;;13.35;9.05;;;;;;;;;;5051472;28;20372;-31
2022/04/15 04:13:04;;;;;;;12.95;9.35;;;;;;;;;;5051344;28;20044;-26
2022/04/15 04:15:31;;;;;;;12.88;9.40;;;;;;;;;;5051785;28;20400;-32
2022/04/15 04:17:57;;;;;;;14.88;9.55;;;;;;;;;;5052003;28;20467;-28
2022/04/15 04:20:24;;;;;;;13.52;9.68;;;;;;;;;;5051947;28;20037;-29
2022/04/15 04:22:50;;;;;;;12.13;8.70;;;;;;;;;;5051818;28;20041;-30
2022/04/15 04:25:16;;;;;;;11.68;9.25;;;;;;;;;;5051810;28;20072;-29
2022/04/15 04:27:43;;;;;;;11.50;9.27;;;;;;;;;;5033879;28;20041;-32
2022/04/15 04:30:12;;;;;;;13.18;9.73;;;;;;;;;;5051348;28;20509;-30
2022/04/15 04:32:38;;;;;;;12.27;8.80;;;;;;;;;;5051488;28;20098;-29
2022/04/15 04:35:05;;;;;;;9.98;8.77;;;;;;;;;;5051648;28;20052;-30
2022/04/15 04:37:31;;;;;;;12.15;10.18;;;;;;;;;;5051474;28;20032;-30
2022/04/15 04:39:58;;;;;;;19.08;10.45;;;;;;;;;;5051468;28;20052;-29
2022/04/15 04:42:25;;;;;;;14.50;9.23;;;;;;;;;;5033589;28;20040;-30
2022/04/15 04:44:52;;;;;;;13.27;9.25;;;;;;;;;;5051474;28;20045;-32
2022/04/15 04:47:19;;;;;;;10.98;8.82;;;;;;;;;;5033844;28;20051;-33
2022/04/15 04:49:45;;;;;;;13.88;8.95;;;;;;;;;;5051045;28;20037;-30
2022/04/15 04:52:12;;;;;;;10.70;8.80;;;;;;;;;;5033450;28;20076;-30
2022/04/15 04:54:39;;;;;;;13.75;9.63;;;;;;;;;;5051458;28;20044;-31
2022/04/15 04:57:05;;;;;;;12.77;9.55;;;;;;;;;;5051287;28;20045;-28
2022/04/15 04:59:32;;;;;;;12.30;9.70;;;;;;;;;;5051339;28;20457;-31
2022/04/15 05:01:59;;;;;;;13.13;8.82;;;;;;;;;;5051148;28;20130;-30
2022/04/15 05:04:25;;;;;;;12.68;9.07;;;;;;;;;;5036126;28;20041;-31
2022/04/15 05:06:52;;;;;;;12.45;9.43;;;;;;;;;;5055077;28;20049;-33
2022/04/15 05:09:18;;;;;;;11.07;8.40;;;;;;;;;;5037078;28;20045;-30
2022/04/15 05:11:44;;;;;;;12.77;9.32;;;;;;;;;;5054779;28;20072;-31
2022/04/15 05:14:11;;;;;;;15.77;9.18;;;;;;;;;;5055684;28;20037;-25
2022/04/15 05:16:37;;;;;;;14.48;9.65;;;;;;;;;;5055438;28;20055;-26
2022/04/15 05:19:03;;;;;;;13.60;10.25;;;;;;;;;;5055768;28;20398;-26
2022/04/15 05:21:29;;;;;;;13.00;9.30;;;;;;;;;;5037831;28;20539;-26
2022/04/15 05:23:55;;;;;;;12.05;8.48;;;;;;;;;;5055279;28;20045;-27
2022/04/15 05:26:22;;;;;;;11.27;9.63;;;;;;;;;;5055182;28;20398;-27
2022/04/15 05:28:48;;;;;;;11.43;8.63;;;;;;;;;;5055367;28;20068;-26
2022/04/15 05:31:14;;;;;;;10.75;9.65;;;;;;;;;;5055323;28;20120;-29
2022/04/15 05:33:41;;;;;;;16.85;9.27;;;;;;;;;;5055226;28;20083;-26
2022/04/15 05:36:07;;;;;;;14.13;10.10;;;;;;;;;;5036878;28;20047;-27
2022/04/15 05:38:33;;;;;;;12.85;9.20;;;;;;;;;;5055008;28;20037;-28
2022/04/15 05:40:59;;;;;;;13.18;9.75;;;;;;;;;;5055091;28;20041;-27
2022/04/15 05:43:26;;;;;;;10.98;9.02;;;;;;;;;;5055141;28;20124;-29
2022/04/15 05:45:52;;;;;;;13.38;9.35;;;;;;;;;;5044028;28;20086;-27
2022/04/15 05:48:18;;;;;;;13.15;9.30;;;;;;;;;;5067250;28;20040;-30
2022/04/15 05:50:44;;;;;;;12.15;8.98;;;;;;;;;;5065471;28;20036;-30
2022/04/15 05:53:13;;;;;;;10.52;8.65;;;;;;;;;;5058652;28;20101;-31
2022/04/15 05:55:39;;;;;;;10.57;7.95;;;;;;;;;;5060064;28;20486;-30
2022/04/15 05:58:07;;;;;;;8.45;7.60;;;;;;;;;;5062549;28;20517;-29
2022/04/15 06:00:33;;;;;;;8.07;7.28;;;;;;;;;;5060472;28;20037;-31
2022/04/15 06:03:00;;;;;;;8.82;7.18;;;;;;;;;;5068558;28;20395;-31
2022/04/15 06:05:27;;;;;;;7.05;6.35;;;;;;;;;;5034713;28;20044;-30
2022/04/15 06:07:53;;;;;;;7.03;6.32;;;;;;;;;;5074200;28;20120;-31
2022/04/15 06:10:19;;;;;;;8.32;5.80;;;;;;;;;;5074381;28;20051;-33
2022/04/15 06:12:57;;;;;;;6.60;5.97;;;;;;;;;;5074170;28;20521;-29
2022/04/15 06:15:32;;;;;;;7.80;6.18;;;;;;;;;;5072646;28;20052;-29
2022/04/15 06:17:58;;;;;;;7.07;6.05;;;;;;;;;;5073714;28;20091;-31
2022/04/15 06:20:25;;;;;;;7.50;5.82;;;;;;;;;;5073466;28;20112;-30
2022/04/15 06:22:51;;;;;;;7.20;6.13;;;;;;;;;;5056098;28;20041;-30
2022/04/15 06:25:17;;;;;;;8.68;6.13;;;;;;;;;;5060840;28;20037;-30
2022/04/15 06:27:43;;;;;;;8.32;6.43;;;;;;;;;;5066539;28;20046;-33
2022/04/15 06:30:09;;;;;;;6.70;5.95;;;;;;;;;;5059318;28;20405;-29
2022/04/15 06:32:36;;;;;;;8.18;6.85;;;;;;;;;;5069213;28;20032;-29
2022/04/15 06:35:03;;;;;;;6.95;5.90;;;;;;;;;;5073116;28;20060;-29
2022/04/15 06:37:29;;;;;;;7.05;6.22;;;;;;;;;;5073329;28;20044;-31
2022/04/15 06:39:55;;;;;;;6.65;5.85;;;;;;;;;;5069904;28;20036;-29
2022/04/15 06:42:23;;;;;;;8.05;6.10;;;;;;;;;;5058839;28;20072;-31
2022/04/15 06:44:50;;;;;;;6.20;5.60;;;;;;;;;;5065591;28;20037;-29
2022/04/15 06:47:16;;;;;;;6.78;5.93;;;;;;;;;;5068367;28;20467;-29
2022/04/15 06:49:43;;;;;;;6.05;5.45;;;;;;;;;;5066115;28;20036;-28
2022/04/15 06:52:09;;;;;;;8.65;5.50;;;;;;;;;;5069604;28;20032;-29
2022/04/15 06:54:36;;;;;;;5.95;5.35;;;;;;;;;;5063506;28;20072;-29
2022/04/15 06:57:02;;;;;;;7.00;5.05;;;;;;;;;;5067628;28;20444;-30
2022/04/15 06:59:28;;;;;;;6.80;5.90;;;;;;;;;;5069678;28;20036;-32
2022/04/15 07:01:55;;;;;;;7.35;5.55;;;;;;;;;;5069329;28;20060;-31
2022/04/15 07:04:21;;;;;;;6.63;5.47;;;;;;;;;;5052333;28;20035;-31
2022/04/15 07:06:48;;;;;;;5.90;5.38;;;;;;;;;;5068165;28;20134;-29
2022/04/15 07:09:14;;;;;;;6.68;5.32;;;;;;;;;;5063133;28;20041;-29
2022/04/15 07:11:40;;;;;;;7.80;5.82;;;;;;;;;;5069309;28;20422;-32
2022/04/15 07:14:07;;;;;;;7.55;5.40;;;;;;;;;;5064175;28;20037;-29
2022/04/15 07:16:34;;;;;;;6.60;5.47;;;;;;;;;;5060900;28;20502;-32
2022/04/15 07:19:04;;;;;;;6.85;6.15;;;;;;;;;;5066980;28;20059;-31
2022/04/15 07:21:34;;;;;;;7.20;6.50;;;;;;;;;;5051852;28;20033;-32
2022/04/15 07:24:00;;;;;;;7.03;6.18;;;;;;;;;;5055260;28;20313;-33
2022/04/15 07:26:26;;;;;;;7.25;6.22;;;;;;;;;;5060473;28;20072;-33
2022/04/15 07:28:52;;;;;;;7.60;6.35;;;;;;;;;;5059156;28;20056;-29
2022/04/15 07:31:19;;;;;;;8.50;6.78;;;;;;;;;;5062899;28;20061;-31
2022/04/15 07:33:48;;;;;;;7.60;6.40;;;;;;;;;;5062397;28;20044;-32
2022/04/15 07:39:00;;;;;;;7.05;6.35;;;;;;;;;;5060972;28;20041;-31
2022/04/15 07:41:26;;;;;;;7.47;6.75;;;;;;;;;;5052725;28;20559;-31
2022/04/15 07:43:52;;;;;;;7.55;6.75;;;;;;;;;;5058900;28;20041;-32
2022/04/15 07:46:19;;;;;;;8.77;6.85;;;;;;;;;;5066838;28;20451;-35
2022/04/15 07:48:45;;;;;;;7.90;6.85;;;;;;;;;;5064577;28;20119;-35
2022/04/15 07:51:11;;;;;;;7.97;6.82;;;;;;;;;;5054073;28;20047;-32
2022/04/15 07:53:37;;;;;;;8.95;6.78;;;;;;;;;;5072174;28;20098;-28
2022/04/15 07:56:03;;;;;;;9.25;7.38;;;;;;;;;;5071602;28;20135;-27
2022/04/15 07:58:30;;;;;;;9.10;8.02;;;;;;;;;;5071591;28;20517;-26
2022/04/15 08:00:59;;;;;;;9.52;8.02;;;;;;;;;;5071725;28;20040;-27
2022/04/15 08:03:26;;;;;;;10.52;8.13;;;;;;;;;;5071978;28;20539;-29
2022/04/15 08:05:52;;;;;;;12.52;9.00;;;;;;;;;;5072054;28;20393;-27
2022/04/15 08:08:18;;;;;;;12.05;8.90;;;;;;;;;;5071873;28;20055;-27
2022/04/15 08:10:44;;;;;;;11.77;9.95;;;;;;;;;;5071508;28;20036;-26
2022/04/15 08:13:10;;;;;;;15.07;9.70;;;;;;;;;;5071793;28;20464;-26
2022/04/15 08:15:36;;;;;;;12.90;9.77;;;;;;;;;;5072408;28;20096;-28
2022/04/15 08:18:03;;;;;;;11.75;8.75;;;;;;;;;;5037794;28;20040;-28
2022/04/15 08:20:29;;;;;;;14.25;10.05;;;;;;;;;;5054324;28;20060;-27
2022/04/15 08:22:55;;;;;;;11.45;8.85;;;;;;;;;;5071954;28;20478;-29
2022/04/15 08:25:21;;;;;;;12.55;10.07;;;;;;;;;;5072122;28;20123;-28
2022/04/15 08:27:47;;;;;;;15.10;9.85;;;;;;;;;;5071792;28;20032;-27
2022/04/15 08:30:13;;;;;;;16.60;10.10;;;;;;;;;;5071873;28;20033;-27
2022/04/15 08:32:39;;;;;;;14.65;9.93;;;;;;;;;;5053721;28;20044;-29
2022/04/15 08:35:07;;;;;;;14.00;9.50;;;;;;;;;;5072078;28;20037;-27
2022/04/15 08:37:33;;;;;;;15.60;9.88;;;;;;;;;;5071560;28;20079;-26
2022/04/15 08:40:00;;;;;;;12.85;9.77;;;;;;;;;;5057911;28;20409;-25
2022/04/15 08:42:26;;;;;;;15.57;10.07;;;;;;;;;;5076229;28;20477;-26
2022/04/15 08:44:53;;;;;;;12.40;10.55;;;;;;;;;;5075513;28;20136;-27
2022/04/15 08:47:20;;;;;;;11.60;9.60;;;;;;;;;;5075465;28;20173;-26
2022/04/15 08:49:46;;;;;;;13.27;9.70;;;;;;;;;;5075389;28;20048;-27
2022/04/15 08:52:15;;;;;;;13.07;10.30;;;;;;;;;;5075319;28;20127;-28
2022/04/15 08:54:41;;;;;;;12.55;10.55;;;;;;;;;;5075115;28;20040;-29
2022/04/15 08:57:07;;;;;;;15.43;11.13;;;;;;;;;;5074917;28;20102;-28
2022/04/15 08:59:35;;;;;;;14.55;10.30;;;;;;;;;;5057340;28;20063;-27
2022/04/15 09:02:01;;;;;;;13.48;10.13;;;;;;;;;;5057300;28;20039;-28
2022/04/15 09:04:27;;;;;;;13.07;10.65;;;;;;;;;;5057531;28;20047;-27
2022/04/15 09:06:55;;;;;;;13.55;10.43;;;;;;;;;;5074940;28;20048;-27
2022/04/15 09:09:24;;;;;;;15.77;11.25;;;;;;;;;;5074850;28;20119;-27
2022/04/15 09:11:51;;;;;;;15.57;10.50;;;;;;;;;;5040598;28;20080;-26
2022/04/15 09:14:17;;;;;;;13.25;10.35;;;;;;;;;;5075507;28;20119;-28
2022/04/15 09:16:45;;;;;;;16.02;10.77;;;;;;;;;;5075073;28;20489;-27
2022/04/15 09:19:12;;;;;;;16.45;10.93;;;;;;;;;;5074774;28;20100;-27
2022/04/15 09:21:39;;;;;;;13.13;10.52;;;;;;;;;;5074626;28;20123;-27
2022/04/15 09:24:07;;;;;;;12.82;10.48;;;;;;;;;;5074500;28;20106;-28
2022/04/15 09:26:33;;;;;;;15.23;11.50;;;;;;;;;;5074037;28;20048;-31
2022/04/15 09:28:59;;;;;;;13.65;11.27;;;;;;;;;;5065158;28;20371;-29
2022/04/15 09:31:26;;;;;;;13.27;10.35;;;;;;;;;;5068327;28;20115;-30
2022/04/15 09:33:57;;;;;;;12.95;10.50;;;;;;;;;;5063067;28;20041;-29
2022/04/15 09:36:31;;;;;;;12.38;10.00;;;;;;;;;;5053308;28;20052;-29
2022/04/15 09:38:58;;;;;;;13.98;11.32;;;;;;;;;;5061368;28;20036;-29
2022/04/15 09:41:26;;;;;;;13.35;10.27;;;;;;;;;;5069564;28;20036;-30
2022/04/15 09:43:53;;;;;;;15.13;11.00;;;;;;;;;;5071620;28;20522;-29
2022/04/15 09:46:19;;;;;;;20.50;11.57;;;;;;;;;;5073661;28;20040;-29
2022/04/15 09:48:58;;;;;;;16.25;12.25;;;;;;;;;;5072944;28;20037;-30
2022/04/15 09:51:24;;;;;;;16.13;10.95;;;;;;;;;;5073274;28;20036;-30
2022/04/15 09:53:55;;;;;;;13.75;10.02;;;;;;;;;;5071327;28;20049;-31
2022/04/15 09:56:23;;;;;;;17.67;9.63;;;;;;;;;;5056392;28;20126;-30
2022/04/15 09:58:56;;;;;;;11.50;8.80;;;;;;;;;;5073572;28;20044;-31
2022/04/15 10:01:23;;;;;;;12.40;8.57;;;;;;;;;;5074130;28;20037;-29
2022/04/15 10:03:50;;;;;;;9.55;8.00;;;;;;;;;;5073766;28;20037;-30
2022/04/15 10:06:16;;;;;;;9.00;8.10;;;;;;;;;;5073200;28;20039;-31
2022/04/15 10:08:43;;;;;;;10.25;7.18;;;;;;;;;;5054251;28;20063;-30
2022/04/15 10:11:10;;;;;;;9.02;7.30;;;;;;;;;;5072380;28;20040;-30
2022/04/15 10:13:36;;;;;;;11.30;6.25;;;;;;;;;;5054674;28;20490;-29
2022/04/15 10:16:03;;;;;;;10.15;6.60;;;;;;;;;;5059170;28;20099;-30
2022/04/15 10:18:29;;;;;;;9.00;6.32;;;;;;;;;;5064876;28;20384;-28
2022/04/15 10:20:55;;;;;;;7.95;6.18;;;;;;;;;;5060780;28;20029;-30
2022/04/15 10:23:22;;;;;;;8.40;6.25;;;;;;;;;;5054797;28;20047;-29
2022/04/15 10:25:49;;;;;;;7.15;5.60;;;;;;;;;;5069926;28;20044;-27
2022/04/15 10:28:20;;;;;;;8.23;6.00;;;;;;;;;;5073222;28;20402;-29
2022/04/15 10:30:52;;;;;;;7.55;6.03;;;;;;;;;;5071720;28;20043;-29
2022/04/15 10:33:31;;;;;;;7.63;5.93;;;;;;;;;;5067149;28;20039;-28
2022/04/15 10:36:00;;;;;;;7.53;6.55;;;;;;;;;;5064716;28;20076;-32
2022/04/15 10:38:26;;;;;;;8.63;6.15;;;;;;;;;;5052385;28;20048;-31
2022/04/15 10:40:52;;;;;;;9.50;6.25;;;;;;;;;;5060454;28;20426;-30
2022/04/15 10:43:20;;;;;;;8.70;5.88;;;;;;;;;;5060200;28;20032;-30
2022/04/15 10:45:46;;;;;;;8.65;6.07;;;;;;;;;;5060680;28;20044;-30
2022/04/15 10:48:12;;;;;;;8.20;5.95;;;;;;;;;;5061307;28;20516;-29
2022/04/15 10:50:40;;;;;;;8.57;6.00;;;;;;;;;;5059708;28;20044;-28
2022/04/15 10:53:15;;;;;;;7.10;5.82;;;;;;;;;;5062068;28;20041;-32
2022/04/15 10:55:43;;;;;;;8.00;6.22;;;;;;;;;;5063824;28;20040;-31
2022/04/15 10:58:14;;;;;;;8.98;6.50;;;;;;;;;;5051132;28;20037;-33
2022/04/15 11:03:30;;;;;;;8.82;6.35;;;;;;;;;;5056376;28;20135;-32
2022/04/15 11:05:57;;;;;;;6.50;5.78;;;;;;;;;;5054909;28;20051;-33
2022/04/15 11:08:24;;;;;;;9.43;6.05;;;;;;;;;;5063221;28;20040;-31
2022/04/15 11:10:50;;;;;;;8.90;6.53;;;;;;;;;;5064604;28;20397;-31
2022/04/15 11:13:29;;;;;;;7.55;6.80;;;;;;;;;;5047875;28;20044;-34
2022/04/15 11:15:59;;;;;;;7.78;6.20;;;;;;;;;;5061247;28;20102;-32
2022/04/15 11:18:50;;;;;;;7.78;6.05;;;;;;;;;;5060192;28;20498;-30
2022/04/15 11:21:16;;;;;;;9.70;6.57;;;;;;;;;;5039430;28;20048;-35
2022/04/15 11:23:46;;;;;;;8.55;6.40;;;;;;;;;;5053599;28;20041;-31
2022/04/15 11:26:13;;;;;;;9.10;6.13;;;;;;;;;;5056948;28;20041;-33
2022/04/15 11:28:39;;;;;;;8.25;6.05;;;;;;;;;;5050139;28;20041;-34
2022/04/15 11:31:18;;;;;;;7.30;6.60;;;;;;;;;;5050027;28;20129;-32
2022/04/15 11:33:44;;;;;;;8.40;6.38;;;;;;;;;;5050711;28;20036;-31
2022/04/15 11:36:10;;;;;;;7.25;6.30;;;;;;;;;;5052601;28;20510;-31
2022/04/15 11:38:37;;;;;;;7.60;6.75;;;;;;;;;;5052610;28;20124;-30
2022/04/15 11:41:03;;;;;;;10.10;6.50;;;;;;;;;;5052627;28;20041;-29
2022/04/15 11:43:29;;;;;;;9.88;5.85;;;;;;;;;;5017199;28;20494;-30
2022/04/15 11:45:55;;;;;;;10.75;6.25;;;;;;;;;;5050806;28;20063;-32
2022/04/15 11:48:22;;;;;;;10.52;7.00;;;;;;;;;;5050896;28;20040;-32
2022/04/15 11:50:51;;;;;;;8.05;6.57;;;;;;;;;;5051651;28;20074;-33
2022/04/15 11:53:18;;;;;;;7.60;6.38;;;;;;;;;;5051258;28;20045;-31
2022/04/15 11:56:02;;;;;;;6.75;6.03;;;;;;;;;;5051129;28;20491;-32
2022/04/15 11:58:35;;;;;;;7.97;6.47;;;;;;;;;;5052165;28;20044;-32
2022/04/15 12:01:02;;;;;;;6.85;6.15;;;;;;;;;;5052163;28;20043;-29
2022/04/15 12:03:28;;;;;;;7.38;6.45;;;;;;;;;;5052064;28;20048;-31
2022/04/15 12:05:57;;;;;;;6.53;5.95;;;;;;;;;;5052080;28;20045;-31
2022/04/15 12:08:24;;;;;;;13.25;6.75;;;;;;;;;;5052444;28;20105;-31
2022/04/15 12:10:50;;;;;;;7.20;6.50;;;;;;;;;;5051870;28;20047;-31
2022/04/15 12:13:17;;;;;;;8.68;6.53;;;;;;;;;;5050864;28;20202;-31
2022/04/15 12:15:44;;;;;;;7.80;6.70;;;;;;;;;;5052288;28;20094;-32
2022/04/15 12:18:11;;;;;;;8.40;7.28;;;;;;;;;;5052273;28;20041;-33
2022/04/15 12:20:38;;;;;;;10.38;7.20;;;;;;;;;;5051988;28;20556;-32
2022/04/15 12:23:05;;;;;;;9.38;6.97;;;;;;;;;;5051949;28;20514;-28
2022/04/15 12:26:06;;;;;;;9.13;7.05;;;;;;;;;;5038159;28;20379;-33
2022/04/15 12:31:03;;;;;;;7.57;6.88;;;;;;;;;;5050232;28;20040;-29
2022/04/15 12:33:30;;;;;;;8.07;7.10;;;;;;;;;;5061096;28;20082;-32
2022/04/15 12:36:07;;;;;;;7.93;7.22;;;;;;;;;;5072877;28;20056;-31
2022/04/15 12:38:51;;;;;;;8.45;7.55;;;;;;;;;;5055030;28;20044;-29
2022/04/15 12:41:18;;;;;;;7.25;6.55;;;;;;;;;;5072541;28;20040;-31
2022/04/15 12:43:44;;;;;;;8.73;7.57;;;;;;;;;;5054929;28;20036;-31
2022/04/15 12:46:16;;;;;;;7.78;6.65;;;;;;;;;;5037793;28;20044;-32
2022/04/15 12:48:50;;;;;;;8.32;7.40;;;;;;;;;;5043360;28;20258;-31
2022/04/15 12:51:17;;;;;;;9.15;7.22;;;;;;;;;;5063815;28;20414;-32
2022/04/15 12:53:44;;;;;;;9.05;7.45;;;;;;;;;;5065854;28;20044;-35
2022/04/15 12:56:14;;;;;;;8.60;7.47;;;;;;;;;;5052888;28;20405;-30
2022/04/15 12:58:52;;;;;;;10.10;7.85;;;;;;;;;;5063249;28;20033;-32
2022/04/15 13:01:18;;;;;;;8.60;7.25;;;;;;;;;;5051388;28;20103;-32
2022/04/15 13:03:51;;;;;;;9.88;8.00;;;;;;;;;;5051180;28;20036;-30
2022/04/15 13:06:18;;;;;;;9.82;7.90;;;;;;;;;;5033697;28;20045;-33
2022/04/15 13:08:44;;;;;;;10.95;7.72;;;;;;;;;;5017248;28;20056;-33
2022/04/15 13:11:10;;;;;;;9.52;7.57;;;;;;;;;;5017069;28;20052;-32
2022/04/15 13:13:39;;;;;;;10.18;8.38;;;;;;;;;;5033961;28;20045;-30
2022/04/15 13:16:05;;;;;;;9.52;8.18;;;;;;;;;;5030218;28;20127;-30
2022/04/15 13:18:31;;;;;;;9.90;8.00;;;;;;;;;;5069492;28;20488;-32
2022/04/15 13:20:58;;;;;;;8.90;7.90;;;;;;;;;;5071424;28;20182;-31
2022/04/15 13:23:24;;;;;;;10.35;8.48;;;;;;;;;;5013952;28;20036;-31
2022/04/15 13:25:52;;;;;;;10.88;8.00;;;;;;;;;;5044047;28;20037;-28
2022/04/15 13:28:18;;;;;;;11.88;8.38;;;;;;;;;;5037653;28;20127;-30
2022/04/15 13:30:45;;;;;;;8.73;7.82;;;;;;;;;;5037441;28;20134;-29
2022/04/15 13:33:11;;;;;;;12.70;7.97;;;;;;;;;;5055315;28;20045;-30
2022/04/15 13:35:38;;;;;;;10.80;8.45;;;;;;;;;;5054903;28;20532;-31
2022/04/15 13:38:04;;;;;;;10.23;7.97;;;;;;;;;;5054499;28;20045;-32
2022/04/15 13:40:30;;;;;;;9.27;8.25;;;;;;;;;;5053929;28;20049;-30
2022/04/15 13:42:56;;;;;;;9.63;8.02;;;;;;;;;;5054247;28;20037;-29
2022/04/15 13:45:23;;;;;;;9.60;7.60;;;;;;;;;;5064934;28;20417;-29
2022/04/15 13:47:49;;;;;;;10.95;7.68;;;;;;;;;;5030289;28;20043;-29
2022/04/15 13:50:15;;;;;;;9.80;8.00;;;;;;;;;;5054542;28;20540;-31
2022/04/15 13:58:12;;;;;;;9.88;7.00;;;;;;;;;;5062345;28;20537;-31
2022/04/15 14:00:39;;;;;;;8.10;7.25;;;;;;;;;;5074543;28;20036;-30
2022/04/15 14:03:07;;;;;;;8.57;7.70;;;;;;;;;;5056211;28;20044;-31
2022/04/15 14:05:33;;;;;;;7.55;6.78;;;;;;;;;;5074706;28;20040;-31
2022/04/15 14:07:59;;;;;;;7.63;6.93;;;;;;;;;;5074654;28;20521;-29
2022/04/15 14:10:25;;;;;;;8.23;6.85;;;;;;;;;;5074537;28;20037;-29
2022/04/15 14:12:51;;;;;;;8.40;7.60;;;;;;;;;;5055640;28;20060;-30
2022/04/15 14:15:23;;;;;;;7.93;7.13;;;;;;;;;;5067626;28;20414;-30
2022/04/15 14:17:49;;;;;;;8.05;7.20;;;;;;;;;;5063460;28;20115;-31
2022/04/15 14:20:16;;;;;;;8.82;6.85;;;;;;;;;;5073435;28;20036;-31
2022/04/15 14:22:42;;;;;;;7.55;6.72;;;;;;;;;;5053350;28;20043;-28
2022/04/15 14:25:08;;;;;;;10.75;6.85;;;;;;;;;;5053401;28;20040;-30
2022/04/15 14:27:34;;;;;;;7.63;6.75;;;;;;;;;;5058956;28;20033;-31
2022/04/15 14:30:00;;;;;;;8.75;7.15;;;;;;;;;;5018771;28;20037;-31
2022/04/15 14:32:27;;;;;;;7.97;7.18;;;;;;;;;;5053557;28;20579;-32
2022/04/15 14:34:54;;;;;;;9.05;7.43;;;;;;;;;;5053796;28;20125;-32
2022/04/15 14:37:20;;;;;;;9.55;6.82;;;;;;;;;;5052687;28;20049;-32
2022/04/15 14:39:47;;;;;;;8.25;6.82;;;;;;;;;;5019493;28;20045;-32
2022/04/15 14:42:13;;;;;;;8.38;7.07;;;;;;;;;;5034816;28;20044;-29
2022/04/15 14:44:39;;;;;;;8.43;7.18;;;;;;;;;;5053455;28;20041;-29
2022/04/15 14:47:05;;;;;;;9.20;7.20;;;;;;;;;;5053680;28;20094;-27